KSFB/SFB METAR and TAF weather

Enter ICAO airport designator
Station Type Date Time Source
KSFB METAR 2021/06/24 06:53 UTC NOAA

KSFB 240653Z AUTO 31003KT 10SM BKN110 23/22 A3009 RMK AO2 SLP187 T02330222


Station Type Date Time Source
KSFB Decoded METAR 2021/06/24 06:53 UTC NOAA

ORLANDO SANFORD AIRPORT, FL, United States (KSFB) 28-47N 081-15W
Jun 24, 2021 - 02:53 AM EDT / 2021.06.24 0653 UTC
Wind: from the NW (310 degrees) at 3 MPH (3 KT):0
Visibility: 10 mile(s):0
Sky conditions: mostly cloudy
Temperature: 73.9 F (23.3 C)
Dew Point: 72.0 F (22.2 C)
Relative Humidity: 93%
Pressure (altimeter): 30.09 in. Hg (1018 hPa)
ob: KSFB 240653Z AUTO 31003KT 10SM BKN110 23/22 A3009 RMK AO2 SLP187 T02330222
cycle: 7

Station Type Date Time Source
KSFB TAF 2021/06/24 06:27 UTC NOAA

TAF KSFB 240525Z 2406/2506 VRB03KT P6SM FEW020 BKN250
FM241400 08007KT P6SM SCT035 SCT100 SCT250
FM241600 09010KT P6SM VCTS SCT035CB BKN045 BKN250
TEMPO 2417/2420 3SM TSRA BKN030CB
FM242200 10005KT P6SM VCSH BKN040 BKN250

Example: see airport list